sensor_id;sensor_type;location;lat;lon;timestamp;P1;durP1;ratioP1;P2;durP2;ratioP2
13487;SDS011;6816;48.506;9.050;2023-02-28T05:18:35;5.77;;;4.30;;
13487;SDS011;6816;48.506;9.050;2023-02-28T05:21:57;4.80;;;3.83;;
13487;SDS011;6816;48.506;9.050;2023-02-28T05:24:57;5.07;;;3.83;;
13487;SDS011;6816;48.506;9.050;2023-02-28T05:27:58;5.63;;;4.00;;
13487;SDS011;6816;48.506;9.050;2023-02-28T05:30:59;7.63;;;3.63;;
13487;SDS011;6816;48.506;9.050;2023-02-28T05:33:59;4.87;;;3.70;;
13487;SDS011;6816;48.506;9.050;2023-02-28T05:37:00;3.93;;;3.20;;
13487;SDS011;6816;48.506;9.050;2023-02-28T05:40:01;4.40;;;4.00;;
13487;SDS011;6816;48.506;9.050;2023-02-28T05:43:07;6.00;;;3.80;;
13487;SDS011;6816;48.506;9.050;2023-02-28T05:46:10;3.93;;;3.33;;
13487;SDS011;6816;48.506;9.050;2023-02-28T05:49:12;5.57;;;3.87;;
13487;SDS011;6816;48.506;9.050;2023-02-28T05:52:13;5.10;;;3.50;;
13487;SDS011;6816;48.506;9.050;2023-02-28T05:55:13;5.60;;;4.20;;
13487;SDS011;6816;48.506;9.050;2023-02-28T05:58:14;3.47;;;2.90;;
13487;SDS011;6816;48.506;9.050;2023-02-28T06:01:22;4.87;;;4.00;;
13487;SDS011;6816;48.506;9.050;2023-02-28T06:04:25;3.70;;;3.40;;
13487;SDS011;6816;48.506;9.050;2023-02-28T06:07:25;7.23;;;3.97;;
13487;SDS011;6816;48.506;9.050;2023-02-28T06:10:26;4.90;;;3.60;;
13487;SDS011;6816;48.506;9.050;2023-02-28T06:13:26;4.37;;;3.53;;
13487;SDS011;6816;48.506;9.050;2023-02-28T06:16:27;6.37;;;3.73;;
13487;SDS011;6816;48.506;9.050;2023-02-28T06:19:29;4.97;;;4.00;;
13487;SDS011;6816;48.506;9.050;2023-02-28T06:22:30;4.67;;;3.70;;
13487;SDS011;6816;48.506;9.050;2023-02-28T06:25:31;5.97;;;4.13;;
13487;SDS011;6816;48.506;9.050;2023-02-28T06:28:32;4.80;;;3.80;;
13487;SDS011;6816;48.506;9.050;2023-02-28T06:31:32;5.47;;;4.43;;
13487;SDS011;6816;48.506;9.050;2023-02-28T06:34:33;6.77;;;4.73;;
13487;SDS011;6816;48.506;9.050;2023-02-28T06:37:33;4.97;;;4.00;;
13487;SDS011;6816;48.506;9.050;2023-02-28T06:40:34;6.33;;;4.00;;
13487;SDS011;6816;48.506;9.050;2023-02-28T06:43:36;4.20;;;3.70;;
13487;SDS011;6816;48.506;9.050;2023-02-28T06:46:40;5.17;;;3.87;;
13487;SDS011;6816;48.506;9.050;2023-02-28T06:49:41;6.97;;;4.00;;
13487;SDS011;6816;48.506;9.050;2023-02-28T06:52:42;4.83;;;4.20;;
13487;SDS011;6816;48.506;9.050;2023-02-28T06:55:42;9.77;;;4.40;;
13487;SDS011;6816;48.506;9.050;2023-02-28T06:58:47;8.53;;;4.30;;
13487;SDS011;6816;48.506;9.050;2023-02-28T07:01:49;5.37;;;3.83;;
13487;SDS011;6816;48.506;9.050;2023-02-28T07:04:49;7.23;;;4.73;;
13487;SDS011;6816;48.506;9.050;2023-02-28T07:07:50;6.93;;;4.20;;
13487;SDS011;6816;48.506;9.050;2023-02-28T07:10:55;4.50;;;3.67;;
13487;SDS011;6816;48.506;9.050;2023-02-28T07:13:56;5.70;;;4.43;;
13487;SDS011;6816;48.506;9.050;2023-02-28T07:16:57;6.07;;;4.70;;
13487;SDS011;6816;48.506;9.050;2023-02-28T07:19:58;5.40;;;4.47;;
13487;SDS011;6816;48.506;9.050;2023-02-28T07:22:58;5.27;;;4.37;;
13487;SDS011;6816;48.506;9.050;2023-02-28T07:25:59;7.13;;;4.67;;
13487;SDS011;6816;48.506;9.050;2023-02-28T07:28:59;4.80;;;4.00;;
13487;SDS011;6816;48.506;9.050;2023-02-28T07:32:00;6.70;;;4.50;;
13487;SDS011;6816;48.506;9.050;2023-02-28T07:35:01;5.53;;;4.50;;
13487;SDS011;6816;48.506;9.050;2023-02-28T07:38:02;5.70;;;5.07;;
13487;SDS011;6816;48.506;9.050;2023-02-28T07:41:03;5.80;;;4.77;;
13487;SDS011;6816;48.506;9.050;2023-02-28T07:44:04;6.33;;;4.20;;
13487;SDS011;6816;48.506;9.050;2023-02-28T07:47:09;6.43;;;5.03;;
13487;SDS011;6816;48.506;9.050;2023-02-28T07:50:11;5.33;;;4.70;;
13487;SDS011;6816;48.506;9.050;2023-02-28T07:53:13;5.33;;;4.30;;
13487;SDS011;6816;48.506;9.050;2023-02-28T07:56:14;6.87;;;5.40;;
13487;SDS011;6816;48.506;9.050;2023-02-28T07:59:14;5.93;;;5.00;;
13487;SDS011;6816;48.506;9.050;2023-02-28T08:02:16;5.80;;;4.70;;
13487;SDS011;6816;48.506;9.050;2023-02-28T08:05:17;6.53;;;4.80;;
13487;SDS011;6816;48.506;9.050;2023-02-28T08:08:18;5.53;;;4.67;;
13487;SDS011;6816;48.506;9.050;2023-02-28T08:11:18;5.93;;;5.20;;
13487;SDS011;6816;48.506;9.050;2023-02-28T08:14:19;6.77;;;4.97;;
13487;SDS011;6816;48.506;9.050;2023-02-28T08:17:20;5.93;;;5.07;;
13487;SDS011;6816;48.506;9.050;2023-02-28T08:20:20;6.20;;;4.43;;
13487;SDS011;6816;48.506;9.050;2023-02-28T08:23:21;6.10;;;4.93;;
13487;SDS011;6816;48.506;9.050;2023-02-28T08:26:22;5.73;;;4.77;;
13487;SDS011;6816;48.506;9.050;2023-02-28T08:29:22;7.87;;;5.10;;
13487;SDS011;6816;48.506;9.050;2023-02-28T08:32:23;6.03;;;5.10;;
13487;SDS011;6816;48.506;9.050;2023-02-28T08:35:24;5.60;;;5.10;;
13487;SDS011;6816;48.506;9.050;2023-02-28T08:38:25;5.27;;;4.73;;
13487;SDS011;6816;48.506;9.050;2023-02-28T08:41:25;7.60;;;4.83;;
13487;SDS011;6816;48.506;9.050;2023-02-28T08:44:26;8.77;;;5.00;;
13487;SDS011;6816;48.506;9.050;2023-02-28T08:47:27;5.37;;;4.87;;
13487;SDS011;6816;48.506;9.050;2023-02-28T08:50:27;6.10;;;5.13;;
13487;SDS011;6816;48.506;9.050;2023-02-28T08:53:28;6.40;;;5.23;;
13487;SDS011;6816;48.506;9.050;2023-02-28T08:56:29;6.53;;;5.43;;
13487;SDS011;6816;48.506;9.050;2023-02-28T08:59:31;7.00;;;6.30;;
13487;SDS011;6816;48.506;9.050;2023-02-28T09:02:32;6.30;;;5.70;;
13487;SDS011;6816;48.506;9.050;2023-02-28T09:05:32;6.77;;;6.03;;
13487;SDS011;6816;48.506;9.050;2023-02-28T09:08:33;6.80;;;6.00;;
13487;SDS011;6816;48.506;9.050;2023-02-28T09:11:34;7.20;;;6.00;;
13487;SDS011;6816;48.506;9.050;2023-02-28T09:14:35;6.80;;;6.10;;
13487;SDS011;6816;48.506;9.050;2023-02-28T09:17:36;7.63;;;6.30;;
13487;SDS011;6816;48.506;9.050;2023-02-28T09:20:38;7.17;;;5.97;;
13487;SDS011;6816;48.506;9.050;2023-02-28T09:23:42;5.83;;;5.33;;
13487;SDS011;6816;48.506;9.050;2023-02-28T09:26:47;6.63;;;5.97;;
13487;SDS011;6816;48.506;9.050;2023-02-28T09:29:47;6.63;;;5.90;;
13487;SDS011;6816;48.506;9.050;2023-02-28T09:32:48;7.00;;;5.57;;
13487;SDS011;6816;48.506;9.050;2023-02-28T09:35:57;6.57;;;5.87;;
13487;SDS011;6816;48.506;9.050;2023-02-28T09:39:00;7.03;;;5.90;;
13487;SDS011;6816;48.506;9.050;2023-02-28T09:42:01;6.13;;;5.53;;
13487;SDS011;6816;48.506;9.050;2023-02-28T09:45:05;6.10;;;5.50;;
13487;SDS011;6816;48.506;9.050;2023-02-28T09:48:14;7.37;;;6.50;;
13487;SDS011;6816;48.506;9.050;2023-02-28T09:54:48;6.47;;;5.67;;
13487;SDS011;6816;48.506;9.050;2023-02-28T09:57:49;6.67;;;5.83;;
13487;SDS011;6816;48.506;9.050;2023-02-28T10:00:57;6.30;;;5.70;;
13487;SDS011;6816;48.506;9.050;2023-02-28T10:10:58;8.47;;;6.00;;
13487;SDS011;6816;48.506;9.050;2023-02-28T10:14:05;7.47;;;6.10;;
13487;SDS011;6816;48.506;9.050;2023-02-28T10:17:17;6.57;;;5.87;;
13487;SDS011;6816;48.506;9.050;2023-02-28T10:20:25;6.73;;;6.00;;
13487;SDS011;6816;48.506;9.050;2023-02-28T10:23:32;7.50;;;5.90;;
13487;SDS011;6816;48.506;9.050;2023-02-28T10:26:35;6.17;;;5.57;;
13487;SDS011;6816;48.506;9.050;2023-02-28T10:29:36;6.37;;;5.73;;
13487;SDS011;6816;48.506;9.050;2023-02-28T10:32:40;6.73;;;6.03;;
13487;SDS011;6816;48.506;9.050;2023-02-28T10:35:49;7.30;;;6.37;;
13487;SDS011;6816;48.506;9.050;2023-02-28T10:38:50;8.37;;;6.63;;
13487;SDS011;6816;48.506;9.050;2023-02-28T10:41:51;7.50;;;6.13;;
13487;SDS011;6816;48.506;9.050;2023-02-28T10:45:25;8.83;;;6.47;;
13487;SDS011;6816;48.506;9.050;2023-02-28T10:51:19;8.13;;;6.40;;
13487;SDS011;6816;48.506;9.050;2023-02-28T10:54:24;7.03;;;6.30;;
13487;SDS011;6816;48.506;9.050;2023-02-28T10:57:35;6.80;;;6.00;;
13487;SDS011;6816;48.506;9.050;2023-02-28T11:00:36;7.63;;;6.93;;
13487;SDS011;6816;48.506;9.050;2023-02-28T11:03:37;7.43;;;6.73;;
13487;SDS011;6816;48.506;9.050;2023-02-28T11:06:37;8.37;;;6.90;;
13487;SDS011;6816;48.506;9.050;2023-02-28T11:09:39;7.37;;;6.30;;
13487;SDS011;6816;48.506;9.050;2023-02-28T11:12:43;8.37;;;6.50;;
13487;SDS011;6816;48.506;9.050;2023-02-28T11:15:58;8.63;;;6.77;;
13487;SDS011;6816;48.506;9.050;2023-02-28T11:19:02;7.03;;;6.33;;
13487;SDS011;6816;48.506;9.050;2023-02-28T11:22:17;6.90;;;6.20;;
13487;SDS011;6816;48.506;9.050;2023-02-28T11:25:29;7.47;;;6.47;;
13487;SDS011;6816;48.506;9.050;2023-02-28T11:28:35;6.87;;;5.87;;
13487;SDS011;6816;48.506;9.050;2023-02-28T11:31:38;7.43;;;6.63;;
13487;SDS011;6816;48.506;9.050;2023-02-28T11:34:39;9.97;;;6.50;;
13487;SDS011;6816;48.506;9.050;2023-02-28T11:37:40;7.20;;;6.30;;
13487;SDS011;6816;48.506;9.050;2023-02-28T11:47:37;7.80;;;7.10;;
13487;SDS011;6816;48.506;9.050;2023-02-28T11:50:54;7.93;;;6.43;;
13487;SDS011;6816;48.506;9.050;2023-02-28T11:54:13;7.70;;;6.80;;
13487;SDS011;6816;48.506;9.050;2023-02-28T12:07:23;8.03;;;7.17;;
13487;SDS011;6816;48.506;9.050;2023-02-28T12:14:27;8.93;;;7.43;;
13487;SDS011;6816;48.506;9.050;2023-02-28T12:17:40;7.63;;;6.83;;
13487;SDS011;6816;48.506;9.050;2023-02-28T12:27:22;8.00;;;7.20;;
13487;SDS011;6816;48.506;9.050;2023-02-28T12:30:33;7.80;;;7.07;;
13487;SDS011;6816;48.506;9.050;2023-02-28T12:33:39;7.80;;;7.00;;
13487;SDS011;6816;48.506;9.050;2023-02-28T12:36:45;8.53;;;7.67;;
13487;SDS011;6816;48.506;9.050;2023-02-28T12:39:48;8.10;;;7.30;;
13487;SDS011;6816;48.506;9.050;2023-02-28T12:42:56;8.80;;;7.90;;
13487;SDS011;6816;48.506;9.050;2023-02-28T12:49:06;8.10;;;7.10;;
13487;SDS011;6816;48.506;9.050;2023-02-28T12:52:13;8.47;;;7.40;;
13487;SDS011;6816;48.506;9.050;2023-02-28T12:55:27;8.90;;;7.23;;
13487;SDS011;6816;48.506;9.050;2023-02-28T12:58:39;8.23;;;7.43;;
13487;SDS011;6816;48.506;9.050;2023-02-28T13:01:51;7.60;;;6.90;;
13487;SDS011;6816;48.506;9.050;2023-02-28T13:05:06;10.30;;;7.13;;
13487;SDS011;6816;48.506;9.050;2023-02-28T13:14:51;8.20;;;7.40;;
13487;SDS011;6816;48.506;9.050;2023-02-28T13:21:46;8.17;;;7.37;;
13487;SDS011;6816;48.506;9.050;2023-02-28T13:24:54;8.53;;;7.63;;
13487;SDS011;6816;48.506;9.050;2023-02-28T13:27:56;8.30;;;7.50;;
13487;SDS011;6816;48.506;9.050;2023-02-28T13:31:04;8.80;;;7.33;;
13487;SDS011;6816;48.506;9.050;2023-02-28T13:34:12;8.13;;;7.33;;
13487;SDS011;6816;48.506;9.050;2023-02-28T13:40:28;8.43;;;7.07;;
13487;SDS011;6816;48.506;9.050;2023-02-28T13:56:24;9.33;;;8.33;;
13487;SDS011;6816;48.506;9.050;2023-02-28T14:03:05;8.80;;;7.90;;
13487;SDS011;6816;48.506;9.050;2023-02-28T14:09:27;7.63;;;6.90;;
13487;SDS011;6816;48.506;9.050;2023-02-28T14:29:02;8.33;;;7.47;;
13487;SDS011;6816;48.506;9.050;2023-02-28T14:32:43;9.37;;;7.67;;
13487;SDS011;6816;48.506;9.050;2023-02-28T14:36:16;7.93;;;7.13;;
13487;SDS011;6816;48.506;9.050;2023-02-28T14:39:25;9.00;;;7.33;;
13487;SDS011;6816;48.506;9.050;2023-02-28T14:42:34;8.53;;;7.63;;
13487;SDS011;6816;48.506;9.050;2023-02-28T14:45:44;8.23;;;7.27;;
13487;SDS011;6816;48.506;9.050;2023-02-28T14:49:00;9.43;;;8.43;;
13487;SDS011;6816;48.506;9.050;2023-02-28T14:52:23;8.20;;;7.37;;
13487;SDS011;6816;48.506;9.050;2023-02-28T14:55:24;8.70;;;7.10;;
13487;SDS011;6816;48.506;9.050;2023-02-28T14:58:29;7.87;;;7.07;;
13487;SDS011;6816;48.506;9.050;2023-02-28T15:01:32;8.83;;;7.67;;
13487;SDS011;6816;48.506;9.050;2023-02-28T15:04:33;7.87;;;7.00;;
13487;SDS011;6816;48.506;9.050;2023-02-28T15:07:34;9.57;;;7.50;;
13487;SDS011;6816;48.506;9.050;2023-02-28T15:10:34;8.23;;;6.83;;
13487;SDS011;6816;48.506;9.050;2023-02-28T15:13:36;8.57;;;7.67;;
13487;SDS011;6816;48.506;9.050;2023-02-28T15:16:46;7.33;;;6.63;;
13487;SDS011;6816;48.506;9.050;2023-02-28T15:19:55;8.03;;;7.23;;
13487;SDS011;6816;48.506;9.050;2023-02-28T15:22:56;7.40;;;6.70;;
13487;SDS011;6816;48.506;9.050;2023-02-28T15:25:57;10.03;;;7.67;;
13487;SDS011;6816;48.506;9.050;2023-02-28T15:29:00;7.83;;;6.80;;
13487;SDS011;6816;48.506;9.050;2023-02-28T15:32:05;7.63;;;6.87;;
13487;SDS011;6816;48.506;9.050;2023-02-28T15:38:32;7.20;;;6.27;;
13487;SDS011;6816;48.506;9.050;2023-02-28T15:41:35;7.80;;;6.63;;
13487;SDS011;6816;48.506;9.050;2023-02-28T15:44:39;7.60;;;6.53;;
13487;SDS011;6816;48.506;9.050;2023-02-28T15:47:40;7.93;;;6.87;;
13487;SDS011;6816;48.506;9.050;2023-02-28T15:54:27;6.90;;;6.17;;
13487;SDS011;6816;48.506;9.050;2023-02-28T15:57:33;8.33;;;6.63;;
13487;SDS011;6816;48.506;9.050;2023-02-28T16:00:33;8.50;;;6.37;;
13487;SDS011;6816;48.506;9.050;2023-02-28T16:03:37;7.20;;;6.40;;
13487;SDS011;6816;48.506;9.050;2023-02-28T16:10:00;10.83;;;6.57;;
13487;SDS011;6816;48.506;9.050;2023-02-28T16:13:01;7.47;;;6.37;;
13487;SDS011;6816;48.506;9.050;2023-02-28T16:16:02;8.33;;;6.63;;
13487;SDS011;6816;48.506;9.050;2023-02-28T16:19:03;9.43;;;7.63;;
13487;SDS011;6816;48.506;9.050;2023-02-28T16:22:04;7.57;;;6.83;;
13487;SDS011;6816;48.506;9.050;2023-02-28T16:25:04;8.20;;;6.93;;
13487;SDS011;6816;48.506;9.050;2023-02-28T16:28:08;9.70;;;7.73;;
13487;SDS011;6816;48.506;9.050;2023-02-28T16:31:17;7.77;;;6.97;;
13487;SDS011;6816;48.506;9.050;2023-02-28T16:34:19;7.90;;;7.10;;
13487;SDS011;6816;48.506;9.050;2023-02-28T16:37:20;8.23;;;7.00;;
13487;SDS011;6816;48.506;9.050;2023-02-28T16:40:24;9.57;;;7.57;;
13487;SDS011;6816;48.506;9.050;2023-02-28T16:43:28;7.60;;;6.57;;
13487;SDS011;6816;48.506;9.050;2023-02-28T16:46:38;9.10;;;7.27;;
13487;SDS011;6816;48.506;9.050;2023-02-28T16:49:39;7.73;;;6.87;;
13487;SDS011;6816;48.506;9.050;2023-02-28T16:52:43;7.73;;;6.57;;
13487;SDS011;6816;48.506;9.050;2023-02-28T16:55:43;8.70;;;6.60;;
13487;SDS011;6816;48.506;9.050;2023-02-28T16:58:44;8.63;;;6.60;;
13487;SDS011;6816;48.506;9.050;2023-02-28T17:01:45;8.03;;;6.97;;
13487;SDS011;6816;48.506;9.050;2023-02-28T17:04:46;8.23;;;7.03;;
13487;SDS011;6816;48.506;9.050;2023-02-28T17:07:47;8.80;;;6.93;;
13487;SDS011;6816;48.506;9.050;2023-02-28T17:10:49;8.03;;;6.60;;
13487;SDS011;6816;48.506;9.050;2023-02-28T17:13:49;10.23;;;7.33;;
13487;SDS011;6816;48.506;9.050;2023-02-28T17:16:50;8.97;;;7.37;;
13487;SDS011;6816;48.506;9.050;2023-02-28T17:19:51;8.30;;;6.17;;
13487;SDS011;6816;48.506;9.050;2023-02-28T17:22:52;8.67;;;7.00;;
13487;SDS011;6816;48.506;9.050;2023-02-28T17:25:53;10.23;;;7.47;;
13487;SDS011;6816;48.506;9.050;2023-02-28T17:28:54;9.87;;;8.20;;
13487;SDS011;6816;48.506;9.050;2023-02-28T17:31:56;9.87;;;7.57;;
13487;SDS011;6816;48.506;9.050;2023-02-28T17:34:57;9.57;;;7.23;;
13487;SDS011;6816;48.506;9.050;2023-02-28T17:37:58;10.33;;;7.93;;
13487;SDS011;6816;48.506;9.050;2023-02-28T17:40:58;8.40;;;6.77;;
13487;SDS011;6816;48.506;9.050;2023-02-28T17:43:59;7.80;;;6.87;;
13487;SDS011;6816;48.506;9.050;2023-02-28T17:47:00;8.97;;;7.17;;
13487;SDS011;6816;48.506;9.050;2023-02-28T17:50:00;8.37;;;6.83;;
13487;SDS011;6816;48.506;9.050;2023-02-28T17:53:01;8.27;;;6.97;;
13487;SDS011;6816;48.506;9.050;2023-02-28T17:56:02;8.07;;;6.73;;
13487;SDS011;6816;48.506;9.050;2023-02-28T17:59:02;8.80;;;7.47;;
13487;SDS011;6816;48.506;9.050;2023-02-28T18:02:03;10.83;;;7.70;;
13487;SDS011;6816;48.506;9.050;2023-02-28T18:05:04;9.43;;;7.67;;
13487;SDS011;6816;48.506;9.050;2023-02-28T18:08:07;9.67;;;8.60;;
13487;SDS011;6816;48.506;9.050;2023-02-28T18:11:10;11.60;;;8.67;;
13487;SDS011;6816;48.506;9.050;2023-02-28T18:14:17;11.07;;;9.10;;
13487;SDS011;6816;48.506;9.050;2023-02-28T18:17:19;10.00;;;8.33;;
13487;SDS011;6816;48.506;9.050;2023-02-28T18:20:20;11.23;;;8.67;;
13487;SDS011;6816;48.506;9.050;2023-02-28T18:23:21;11.23;;;9.00;;
13487;SDS011;6816;48.506;9.050;2023-02-28T18:26:21;11.20;;;8.73;;
13487;SDS011;6816;48.506;9.050;2023-02-28T18:29:23;10.63;;;8.47;;
13487;SDS011;6816;48.506;9.050;2023-02-28T18:32:26;12.13;;;8.30;;
13487;SDS011;6816;48.506;9.050;2023-02-28T18:35:27;10.50;;;8.80;;
13487;SDS011;6816;48.506;9.050;2023-02-28T18:38:36;10.83;;;8.77;;
13487;SDS011;6816;48.506;9.050;2023-02-28T18:41:37;11.90;;;8.57;;
13487;SDS011;6816;48.506;9.050;2023-02-28T18:44:38;10.20;;;7.90;;
13487;SDS011;6816;48.506;9.050;2023-02-28T18:47:38;10.27;;;8.20;;
13487;SDS011;6816;48.506;9.050;2023-02-28T18:50:39;9.43;;;8.17;;
13487;SDS011;6816;48.506;9.050;2023-02-28T18:53:41;9.47;;;7.67;;
13487;SDS011;6816;48.506;9.050;2023-02-28T18:56:42;9.77;;;7.70;;
13487;SDS011;6816;48.506;9.050;2023-02-28T18:59:43;10.63;;;8.53;;
13487;SDS011;6816;48.506;9.050;2023-02-28T19:02:44;11.77;;;9.30;;
13487;SDS011;6816;48.506;9.050;2023-02-28T19:05:45;10.90;;;8.73;;
13487;SDS011;6816;48.506;9.050;2023-02-28T19:08:46;11.10;;;8.57;;
13487;SDS011;6816;48.506;9.050;2023-02-28T19:11:50;11.80;;;9.07;;
13487;SDS011;6816;48.506;9.050;2023-02-28T19:14:51;12.97;;;9.13;;
13487;SDS011;6816;48.506;9.050;2023-02-28T19:17:51;12.13;;;9.70;;
13487;SDS011;6816;48.506;9.050;2023-02-28T19:20:52;12.43;;;9.60;;
13487;SDS011;6816;48.506;9.050;2023-02-28T19:23:53;12.80;;;9.13;;
13487;SDS011;6816;48.506;9.050;2023-02-28T19:26:54;11.50;;;8.93;;
13487;SDS011;6816;48.506;9.050;2023-02-28T19:29:55;10.30;;;8.20;;
13487;SDS011;6816;48.506;9.050;2023-02-28T19:32:58;10.70;;;8.53;;
13487;SDS011;6816;48.506;9.050;2023-02-28T19:35:59;12.53;;;9.73;;
13487;SDS011;6816;48.506;9.050;2023-02-28T19:39:00;12.57;;;9.37;;
13487;SDS011;6816;48.506;9.050;2023-02-28T19:42:01;15.07;;;10.07;;
13487;SDS011;6816;48.506;9.050;2023-02-28T19:45:01;13.63;;;9.73;;
13487;SDS011;6816;48.506;9.050;2023-02-28T19:48:03;15.07;;;9.80;;
13487;SDS011;6816;48.506;9.050;2023-02-28T19:51:05;12.47;;;9.43;;
13487;SDS011;6816;48.506;9.050;2023-02-28T19:54:08;12.17;;;10.27;;
13487;SDS011;6816;48.506;9.050;2023-02-28T19:57:08;13.73;;;10.73;;
13487;SDS011;6816;48.506;9.050;2023-02-28T20:00:10;14.53;;;10.87;;
13487;SDS011;6816;48.506;9.050;2023-02-28T20:03:13;13.97;;;10.60;;
13487;SDS011;6816;48.506;9.050;2023-02-28T20:06:14;13.70;;;10.50;;
13487;SDS011;6816;48.506;9.050;2023-02-28T20:09:15;14.53;;;10.27;;
13487;SDS011;6816;48.506;9.050;2023-02-28T20:12:16;16.03;;;11.23;;
13487;SDS011;6816;48.506;9.050;2023-02-28T20:15:17;15.60;;;11.43;;
13487;SDS011;6816;48.506;9.050;2023-02-28T20:18:18;18.13;;;11.83;;
13487;SDS011;6816;48.506;9.050;2023-02-28T20:21:19;14.00;;;10.10;;
13487;SDS011;6816;48.506;9.050;2023-02-28T20:24:19;12.43;;;10.07;;
13487;SDS011;6816;48.506;9.050;2023-02-28T20:27:24;13.83;;;10.53;;
13487;SDS011;6816;48.506;9.050;2023-02-28T20:30:25;12.20;;;10.00;;
13487;SDS011;6816;48.506;9.050;2023-02-28T20:33:26;13.07;;;9.80;;
13487;SDS011;6816;48.506;9.050;2023-02-28T20:36:26;13.97;;;10.10;;
13487;SDS011;6816;48.506;9.050;2023-02-28T20:39:27;14.37;;;10.50;;
13487;SDS011;6816;48.506;9.050;2023-02-28T20:42:28;13.27;;;9.70;;
13487;SDS011;6816;48.506;9.050;2023-02-28T20:45:29;12.37;;;9.30;;
13487;SDS011;6816;48.506;9.050;2023-02-28T20:48:30;11.50;;;9.20;;
13487;SDS011;6816;48.506;9.050;2023-02-28T20:51:32;11.47;;;8.57;;
13487;SDS011;6816;48.506;9.050;2023-02-28T20:54:33;10.70;;;8.90;;
13487;SDS011;6816;48.506;9.050;2023-02-28T20:57:35;11.80;;;8.83;;
13487;SDS011;6816;48.506;9.050;2023-02-28T21:00:36;10.73;;;8.23;;
13487;SDS011;6816;48.506;9.050;2023-02-28T21:03:39;11.60;;;8.70;;
13487;SDS011;6816;48.506;9.050;2023-02-28T21:06:44;11.20;;;9.37;;
13487;SDS011;6816;48.506;9.050;2023-02-28T21:09:46;12.90;;;8.70;;
13487;SDS011;6816;48.506;9.050;2023-02-28T21:12:48;11.17;;;8.17;;
13487;SDS011;6816;48.506;9.050;2023-02-28T21:15:49;12.27;;;8.93;;
13487;SDS011;6816;48.506;9.050;2023-02-28T21:18:50;12.30;;;9.10;;
13487;SDS011;6816;48.506;9.050;2023-02-28T21:21:52;11.70;;;9.17;;
13487;SDS011;6816;48.506;9.050;2023-02-28T21:24:54;11.60;;;9.00;;
13487;SDS011;6816;48.506;9.050;2023-02-28T21:27:54;13.93;;;10.13;;
13487;SDS011;6816;48.506;9.050;2023-02-28T21:31:03;11.87;;;8.60;;
13487;SDS011;6816;48.506;9.050;2023-02-28T21:34:07;9.57;;;7.50;;
13487;SDS011;6816;48.506;9.050;2023-02-28T21:37:09;12.50;;;8.33;;
13487;SDS011;6816;48.506;9.050;2023-02-28T21:40:10;12.37;;;9.13;;
13487;SDS011;6816;48.506;9.050;2023-02-28T21:43:11;11.33;;;9.13;;
13487;SDS011;6816;48.506;9.050;2023-02-28T21:46:20;13.07;;;8.73;;
13487;SDS011;6816;48.506;9.050;2023-02-28T21:49:22;11.97;;;8.83;;
13487;SDS011;6816;48.506;9.050;2023-02-28T21:52:23;10.83;;;8.17;;
13487;SDS011;6816;48.506;9.050;2023-02-28T21:55:23;10.43;;;7.83;;
13487;SDS011;6816;48.506;9.050;2023-02-28T21:58:24;11.37;;;8.83;;
13487;SDS011;6816;48.506;9.050;2023-02-28T22:01:26;11.47;;;8.60;;
13487;SDS011;6816;48.506;9.050;2023-02-28T22:04:29;13.03;;;8.73;;
13487;SDS011;6816;48.506;9.050;2023-02-28T22:07:29;10.73;;;9.27;;
13487;SDS011;6816;48.506;9.050;2023-02-28T22:10:32;12.80;;;8.70;;
13487;SDS011;6816;48.506;9.050;2023-02-28T22:13:34;12.47;;;9.40;;
13487;SDS011;6816;48.506;9.050;2023-02-28T22:16:35;14.70;;;9.67;;
13487;SDS011;6816;48.506;9.050;2023-02-28T22:19:38;11.67;;;9.17;;
13487;SDS011;6816;48.506;9.050;2023-02-28T22:22:38;12.43;;;9.57;;
13487;SDS011;6816;48.506;9.050;2023-02-28T22:25:39;10.83;;;8.73;;
13487;SDS011;6816;48.506;9.050;2023-02-28T22:28:40;12.13;;;8.83;;
13487;SDS011;6816;48.506;9.050;2023-02-28T22:31:40;14.33;;;9.50;;
13487;SDS011;6816;48.506;9.050;2023-02-28T22:34:41;12.87;;;9.87;;
13487;SDS011;6816;48.506;9.050;2023-02-28T22:37:42;13.97;;;10.20;;
13487;SDS011;6816;48.506;9.050;2023-02-28T22:40:42;12.50;;;9.30;;
13487;SDS011;6816;48.506;9.050;2023-02-28T22:43:43;13.23;;;9.63;;
13487;SDS011;6816;48.506;9.050;2023-02-28T22:46:44;15.03;;;10.17;;
13487;SDS011;6816;48.506;9.050;2023-02-28T22:49:44;13.73;;;9.83;;
13487;SDS011;6816;48.506;9.050;2023-02-28T22:52:45;15.60;;;9.87;;
13487;SDS011;6816;48.506;9.050;2023-02-28T22:55:52;14.73;;;9.90;;
13487;SDS011;6816;48.506;9.050;2023-02-28T22:58:55;11.97;;;9.57;;
13487;SDS011;6816;48.506;9.050;2023-02-28T23:01:56;15.30;;;10.00;;
13487;SDS011;6816;48.506;9.050;2023-02-28T23:04:57;13.97;;;10.17;;
13487;SDS011;6816;48.506;9.050;2023-02-28T23:07:58;13.50;;;9.83;;
13487;SDS011;6816;48.506;9.050;2023-02-28T23:11:00;15.03;;;10.63;;
13487;SDS011;6816;48.506;9.050;2023-02-28T23:14:00;13.17;;;9.43;;
13487;SDS011;6816;48.506;9.050;2023-02-28T23:17:01;13.30;;;9.07;;
13487;SDS011;6816;48.506;9.050;2023-02-28T23:20:02;12.13;;;8.83;;
13487;SDS011;6816;48.506;9.050;2023-02-28T23:23:03;14.00;;;9.77;;
13487;SDS011;6816;48.506;9.050;2023-02-28T23:26:05;13.70;;;9.53;;
13487;SDS011;6816;48.506;9.050;2023-02-28T23:29:07;12.93;;;10.07;;
13487;SDS011;6816;48.506;9.050;2023-02-28T23:32:07;13.13;;;8.97;;
13487;SDS011;6816;48.506;9.050;2023-02-28T23:35:09;12.13;;;8.97;;
13487;SDS011;6816;48.506;9.050;2023-02-28T23:38:10;13.37;;;9.60;;
13487;SDS011;6816;48.506;9.050;2023-02-28T23:41:11;14.40;;;10.50;;
13487;SDS011;6816;48.506;9.050;2023-02-28T23:44:12;13.87;;;10.00;;
13487;SDS011;6816;48.506;9.050;2023-02-28T23:47:15;12.50;;;9.30;;
13487;SDS011;6816;48.506;9.050;2023-02-28T23:50:16;12.87;;;8.93;;
13487;SDS011;6816;48.506;9.050;2023-02-28T23:53:17;13.23;;;9.50;;
13487;SDS011;6816;48.506;9.050;2023-02-28T23:56:19;13.67;;;8.97;;
13487;SDS011;6816;48.506;9.050;2023-02-28T23:59:21;13.20;;;9.03;;
